Thai Harvest — V7XQ5 — position and weather

sailwx.info

Track history (hours):
 
Tides and Currents Weather Stations Pressure Air Temp Water Temp Dewpoint Dewpoint Depression Visibility Wind Speed Wind Dir Waves Ship Positions

Thai Harvest

Last reported at 2014-Dec-15 05:32 UTC. Time now 2014-Dec-22 08:30 UTC.
Position N 01°16' E 104°12'.

Length 174 m; draft 11 m.

Type: Cargo ship. MMSI: 538004544.

Date/timePositionNaut miles runAvg speedWind from/ knotsBaromVisibWave heightAir tempDewpointWater temp
2014-Dec-15 05:32N 01°16' E 104°12'9 9.2
2014-Dec-15 04:33N 01°15' E 104°03'6 6.0
2014-Dec-15 03:32N 01°16' E 103°57'1 0.7
2014-Dec-15 02:28N 01°16' E 103°56'0 0.0
2014-Dec-15 01:28N 01°17' E 103°56'0 0.0
2014-Dec-15 00:25N 01°17' E 103°56'0 0.0
2014-Dec-14 23:25N 01°17' E 103°56'0 0.0
2014-Dec-14 22:13N 01°17' E 103°56'0 0.0
2014-Dec-14 21:31N 01°17' E 103°56'0 0.0
2014-Dec-14 20:31N 01°17' E 103°56'0 0.0
2014-Dec-14 19:19N 01°17' E 103°56'0 0.0
2014-Dec-14 18:28N 01°17' E 103°56'2 1.9
2014-Dec-14 17:33N 01°16' E 103°58'3 3.1
2014-Dec-14 16:33N 01°16' E 104°01'2 1.7
2014-Dec-14 15:33N 01°16' E 104°02'11 0.4
2014-Dec-13 13:08N 01°25' E 103°56'5 7.5
2014-Dec-13 12:28N 01°24' E 104°01'7 7.6
2014-Dec-13 11:33N 01°19' E 104°06'2 1.9
2014-Dec-13 10:32N 01°18' E 104°07'4 4.1
2014-Dec-13 09:33N 01°17' E 104°11'6 5.9
2014-Dec-13 08:33N 01°18' E 104°17'  
Track history (hours):
 
Tides and Currents Weather Stations Pressure Air Temp Water Temp Dewpoint Dewpoint Depression Visibility Wind Speed Wind Dir Waves Ship Positions

Thai Harvest

Last reported at 2014-Dec-15 05:32 UTC. Time now 2014-Dec-22 08:30 UTC.
Position N 01°16' E 104°12'.

Length 174 m; draft 11 m.

Type: Cargo ship. MMSI: 538004544.

Date/timePositionNaut miles runAvg speedWind from/ knotsBaromVisibWave heightAir tempDewpointWater temp
2014-Dec-15 05:32N 01°16' E 104°12'9 9.2
2014-Dec-15 04:33N 01°15' E 104°03'6 6.0
2014-Dec-15 03:32N 01°16' E 103°57'1 0.7
2014-Dec-15 02:28N 01°16' E 103°56'0 0.0
2014-Dec-15 01:28N 01°17' E 103°56'0 0.0
2014-Dec-15 00:25N 01°17' E 103°56'0 0.0
2014-Dec-14 23:25N 01°17' E 103°56'0 0.0
2014-Dec-14 22:13N 01°17' E 103°56'0 0.0
2014-Dec-14 21:31N 01°17' E 103°56'0 0.0
2014-Dec-14 20:31N 01°17' E 103°56'0 0.0
2014-Dec-14 19:19N 01°17' E 103°56'0 0.0
2014-Dec-14 18:28N 01°17' E 103°56'2 1.9
2014-Dec-14 17:33N 01°16' E 103°58'3 3.1
2014-Dec-14 16:33N 01°16' E 104°01'2 1.7
2014-Dec-14 15:33N 01°16' E 104°02'11 0.4
2014-Dec-13 13:08N 01°25' E 103°56'5 7.5
2014-Dec-13 12:28N 01°24' E 104°01'7 7.6
2014-Dec-13 11:33N 01°19' E 104°06'2 1.9
2014-Dec-13 10:32N 01°18' E 104°07'4 4.1
2014-Dec-13 09:33N 01°17' E 104°11'6 5.9
2014-Dec-13 08:33N 01°18' E 104°17'  

Dump ship's entire track history